sensor_id;sensor_type;location;lat;lon;timestamp;temperature;humidity
3727;DHT22;1879;45.876;12.300;2022-09-20T00:00:38;15.80;93.80
3727;DHT22;1879;45.876;12.300;2022-09-20T00:03:05;15.80;93.20
3727;DHT22;1879;45.876;12.300;2022-09-20T00:05:33;15.70;93.60
3727;DHT22;1879;45.876;12.300;2022-09-20T00:08:02;15.60;93.70
3727;DHT22;1879;45.876;12.300;2022-09-20T00:10:29;15.50;93.90
3727;DHT22;1879;45.876;12.300;2022-09-20T00:13:01;15.50;94.20
3727;DHT22;1879;45.876;12.300;2022-09-20T00:15:28;15.50;94.30
3727;DHT22;1879;45.876;12.300;2022-09-20T00:17:56;15.60;94.20
3727;DHT22;1879;45.876;12.300;2022-09-20T00:20:23;15.60;94.30
3727;DHT22;1879;45.876;12.300;2022-09-20T00:22:50;15.60;94.20
3727;DHT22;1879;45.876;12.300;2022-09-20T00:25:18;15.50;94.00
3727;DHT22;1879;45.876;12.300;2022-09-20T00:27:47;15.50;94.00
3727;DHT22;1879;45.876;12.300;2022-09-20T00:30:15;15.60;93.80
3727;DHT22;1879;45.876;12.300;2022-09-20T00:32:42;15.50;93.50
3727;DHT22;1879;45.876;12.300;2022-09-20T00:35:09;15.50;93.00
3727;DHT22;1879;45.876;12.300;2022-09-20T00:37:37;15.40;92.50
3727;DHT22;1879;45.876;12.300;2022-09-20T00:40:07;15.40;92.70
3727;DHT22;1879;45.876;12.300;2022-09-20T00:42:35;15.40;92.60
3727;DHT22;1879;45.876;12.300;2022-09-20T00:45:05;15.30;92.50
3727;DHT22;1879;45.876;12.300;2022-09-20T00:47:37;15.30;92.20
3727;DHT22;1879;45.876;12.300;2022-09-20T00:50:16;15.30;92.60
3727;DHT22;1879;45.876;12.300;2022-09-20T00:52:48;15.30;92.30
3727;DHT22;1879;45.876;12.300;2022-09-20T00:55:18;15.20;92.00
3727;DHT22;1879;45.876;12.300;2022-09-20T00:57:46;15.20;91.90
3727;DHT22;1879;45.876;12.300;2022-09-20T01:00:14;15.20;91.70
3727;DHT22;1879;45.876;12.300;2022-09-20T01:02:45;15.20;91.80
3727;DHT22;1879;45.876;12.300;2022-09-20T01:05:14;15.30;91.40
3727;DHT22;1879;45.876;12.300;2022-09-20T01:07:43;15.20;91.10
3727;DHT22;1879;45.876;12.300;2022-09-20T01:10:11;15.20;91.20
3727;DHT22;1879;45.876;12.300;2022-09-20T01:12:38;15.20;91.70
3727;DHT22;1879;45.876;12.300;2022-09-20T01:15:07;15.20;91.30
3727;DHT22;1879;45.876;12.300;2022-09-20T01:17:36;15.10;91.30
3727;DHT22;1879;45.876;12.300;2022-09-20T01:20:23;15.00;91.40
3727;DHT22;1879;45.876;12.300;2022-09-20T01:23:09;15.00;91.50
3727;DHT22;1879;45.876;12.300;2022-09-20T01:26:02;15.00;91.20
3727;DHT22;1879;45.876;12.300;2022-09-20T01:28:34;14.90;91.40
3727;DHT22;1879;45.876;12.300;2022-09-20T01:31:07;14.90;91.30
3727;DHT22;1879;45.876;12.300;2022-09-20T01:33:40;14.90;92.50
3727;DHT22;1879;45.876;12.300;2022-09-20T01:36:12;14.80;93.90
3727;DHT22;1879;45.876;12.300;2022-09-20T01:38:44;14.70;95.00
3727;DHT22;1879;45.876;12.300;2022-09-20T01:41:18;14.60;96.60
3727;DHT22;1879;45.876;12.300;2022-09-20T01:43:52;14.50;97.50
3727;DHT22;1879;45.876;12.300;2022-09-20T01:46:28;14.40;98.00
3727;DHT22;1879;45.876;12.300;2022-09-20T01:49:09;14.30;98.60
3727;DHT22;1879;45.876;12.300;2022-09-20T01:55:05;14.30;98.70
3727;DHT22;1879;45.876;12.300;2022-09-20T01:57:55;14.30;95.70
3727;DHT22;1879;45.876;12.300;2022-09-20T02:00:31;14.20;93.50
3727;DHT22;1879;45.876;12.300;2022-09-20T02:06:21;14.30;93.60
3727;DHT22;1879;45.876;12.300;2022-09-20T02:14:37;14.20;94.20
3727;DHT22;1879;45.876;12.300;2022-09-20T02:17:13;14.10;94.40
3727;DHT22;1879;45.876;12.300;2022-09-20T02:19:53;14.10;94.70
3727;DHT22;1879;45.876;12.300;2022-09-20T02:22:36;14.10;95.50
3727;DHT22;1879;45.876;12.300;2022-09-20T02:25:14;14.10;96.00
3727;DHT22;1879;45.876;12.300;2022-09-20T02:27:56;14.10;97.20
3727;DHT22;1879;45.876;12.300;2022-09-20T02:30:40;14.10;95.40
3727;DHT22;1879;45.876;12.300;2022-09-20T02:33:41;14.20;92.80
3727;DHT22;1879;45.876;12.300;2022-09-20T02:36:25;14.30;92.70
3727;DHT22;1879;45.876;12.300;2022-09-20T02:39:02;14.40;90.70
3727;DHT22;1879;45.876;12.300;2022-09-20T02:41:54;14.60;90.60
3727;DHT22;1879;45.876;12.300;2022-09-20T02:47:21;14.70;89.70
3727;DHT22;1879;45.876;12.300;2022-09-20T02:50:00;14.70;87.10
3727;DHT22;1879;45.876;12.300;2022-09-20T02:52:36;14.70;86.40
3727;DHT22;1879;45.876;12.300;2022-09-20T02:55:10;14.80;84.90
3727;DHT22;1879;45.876;12.300;2022-09-20T02:57:45;14.90;86.60
3727;DHT22;1879;45.876;12.300;2022-09-20T03:00:20;14.90;86.80
3727;DHT22;1879;45.876;12.300;2022-09-20T03:03:04;15.00;86.00
3727;DHT22;1879;45.876;12.300;2022-09-20T03:05:41;15.00;87.00
3727;DHT22;1879;45.876;12.300;2022-09-20T03:08:25;15.00;85.20
3727;DHT22;1879;45.876;12.300;2022-09-20T03:11:02;15.00;82.60
3727;DHT22;1879;45.876;12.300;2022-09-20T03:13:45;15.00;82.90
3727;DHT22;1879;45.876;12.300;2022-09-20T03:16:21;15.00;81.90
3727;DHT22;1879;45.876;12.300;2022-09-20T03:19:02;15.00;82.10
3727;DHT22;1879;45.876;12.300;2022-09-20T03:21:42;15.00;82.60
3727;DHT22;1879;45.876;12.300;2022-09-20T03:24:19;15.00;82.20
3727;DHT22;1879;45.876;12.300;2022-09-20T03:26:54;14.90;81.40
3727;DHT22;1879;45.876;12.300;2022-09-20T03:29:34;14.90;80.10
3727;DHT22;1879;45.876;12.300;2022-09-20T03:32:13;14.90;78.80
3727;DHT22;1879;45.876;12.300;2022-09-20T03:34:48;14.90;79.10
3727;DHT22;1879;45.876;12.300;2022-09-20T03:37:46;14.90;79.00
3727;DHT22;1879;45.876;12.300;2022-09-20T03:43:18;15.00;78.40
3727;DHT22;1879;45.876;12.300;2022-09-20T03:46:01;15.00;77.70
3727;DHT22;1879;45.876;12.300;2022-09-20T03:48:58;15.00;77.30
3727;DHT22;1879;45.876;12.300;2022-09-20T03:51:33;15.00;76.20
3727;DHT22;1879;45.876;12.300;2022-09-20T03:54:23;15.00;76.50
3727;DHT22;1879;45.876;12.300;2022-09-20T04:00:08;15.00;74.50
3727;DHT22;1879;45.876;12.300;2022-09-20T04:03:11;15.00;74.30
3727;DHT22;1879;45.876;12.300;2022-09-20T04:05:48;15.00;74.50
3727;DHT22;1879;45.876;12.300;2022-09-20T04:08:27;15.00;74.90
3727;DHT22;1879;45.876;12.300;2022-09-20T04:11:04;15.10;74.00
3727;DHT22;1879;45.876;12.300;2022-09-20T04:13:36;15.10;74.90
3727;DHT22;1879;45.876;12.300;2022-09-20T04:16:21;15.10;74.60
3727;DHT22;1879;45.876;12.300;2022-09-20T04:18:52;15.10;74.20
3727;DHT22;1879;45.876;12.300;2022-09-20T04:21:26;15.10;75.00
3727;DHT22;1879;45.876;12.300;2022-09-20T04:23:59;15.20;74.40
3727;DHT22;1879;45.876;12.300;2022-09-20T04:26:31;15.20;74.30
3727;DHT22;1879;45.876;12.300;2022-09-20T04:29:04;15.30;74.30
3727;DHT22;1879;45.876;12.300;2022-09-20T04:31:40;15.20;73.90
3727;DHT22;1879;45.876;12.300;2022-09-20T04:34:15;15.30;74.00
3727;DHT22;1879;45.876;12.300;2022-09-20T04:36:56;15.30;73.60
3727;DHT22;1879;45.876;12.300;2022-09-20T04:39:34;15.30;73.50
3727;DHT22;1879;45.876;12.300;2022-09-20T04:52:02;15.40;73.10
3727;DHT22;1879;45.876;12.300;2022-09-20T04:58:05;15.30;79.00
3727;DHT22;1879;45.876;12.300;2022-09-20T05:00:54;15.20;80.90
3727;DHT22;1879;45.876;12.300;2022-09-20T05:06:55;14.80;83.80
3727;DHT22;1879;45.876;12.300;2022-09-20T05:12:53;14.60;83.90
3727;DHT22;1879;45.876;12.300;2022-09-20T05:15:34;14.60;81.10
3727;DHT22;1879;45.876;12.300;2022-09-20T05:18:22;14.70;80.00
3727;DHT22;1879;45.876;12.300;2022-09-20T05:21:15;14.80;78.60
3727;DHT22;1879;45.876;12.300;2022-09-20T05:24:00;14.90;77.40
3727;DHT22;1879;45.876;12.300;2022-09-20T05:26:39;14.90;77.80
3727;DHT22;1879;45.876;12.300;2022-09-20T05:29:16;14.90;82.00
3727;DHT22;1879;45.876;12.300;2022-09-20T05:31:50;14.70;85.50
3727;DHT22;1879;45.876;12.300;2022-09-20T05:34:24;14.60;84.40
3727;DHT22;1879;45.876;12.300;2022-09-20T05:37:02;14.50;83.00
3727;DHT22;1879;45.876;12.300;2022-09-20T05:39:37;14.60;81.70
3727;DHT22;1879;45.876;12.300;2022-09-20T05:42:14;14.70;81.10
3727;DHT22;1879;45.876;12.300;2022-09-20T05:44:55;14.80;80.60
3727;DHT22;1879;45.876;12.300;2022-09-20T05:47:34;14.90;79.10
3727;DHT22;1879;45.876;12.300;2022-09-20T05:50:14;15.00;78.60
3727;DHT22;1879;45.876;12.300;2022-09-20T05:52:51;15.10;78.50
3727;DHT22;1879;45.876;12.300;2022-09-20T05:55:50;15.20;80.50
3727;DHT22;1879;45.876;12.300;2022-09-20T05:58:44;15.10;84.40
3727;DHT22;1879;45.876;12.300;2022-09-20T06:01:18;15.00;85.60
3727;DHT22;1879;45.876;12.300;2022-09-20T06:03:51;15.00;85.60
3727;DHT22;1879;45.876;12.300;2022-09-20T06:06:27;15.00;86.20
3727;DHT22;1879;45.876;12.300;2022-09-20T06:09:31;15.00;87.60
3727;DHT22;1879;45.876;12.300;2022-09-20T06:12:25;15.00;89.90
3727;DHT22;1879;45.876;12.300;2022-09-20T06:15:03;15.00;89.20
3727;DHT22;1879;45.876;12.300;2022-09-20T06:17:44;15.00;85.80
3727;DHT22;1879;45.876;12.300;2022-09-20T06:20:19;15.10;84.90
3727;DHT22;1879;45.876;12.300;2022-09-20T06:22:52;15.20;84.00
3727;DHT22;1879;45.876;12.300;2022-09-20T06:25:23;15.30;83.90
3727;DHT22;1879;45.876;12.300;2022-09-20T06:27:57;15.40;85.20
3727;DHT22;1879;45.876;12.300;2022-09-20T06:30:28;15.50;85.00
3727;DHT22;1879;45.876;12.300;2022-09-20T06:33:00;15.60;84.50
3727;DHT22;1879;45.876;12.300;2022-09-20T06:35:33;15.70;84.70
3727;DHT22;1879;45.876;12.300;2022-09-20T06:38:12;15.80;84.00
3727;DHT22;1879;45.876;12.300;2022-09-20T06:41:00;15.90;82.80
3727;DHT22;1879;45.876;12.300;2022-09-20T06:43:44;15.90;82.50
3727;DHT22;1879;45.876;12.300;2022-09-20T06:46:13;16.00;82.20
3727;DHT22;1879;45.876;12.300;2022-09-20T06:48:42;16.00;82.40
3727;DHT22;1879;45.876;12.300;2022-09-20T06:51:11;16.10;83.50
3727;DHT22;1879;45.876;12.300;2022-09-20T06:53:39;16.10;84.70
3727;DHT22;1879;45.876;12.300;2022-09-20T06:56:08;16.10;84.10
3727;DHT22;1879;45.876;12.300;2022-09-20T06:58:39;16.10;83.90
3727;DHT22;1879;45.876;12.300;2022-09-20T07:01:05;16.20;83.80
3727;DHT22;1879;45.876;12.300;2022-09-20T07:03:32;16.30;83.20
3727;DHT22;1879;45.876;12.300;2022-09-20T07:06:01;16.30;82.00
3727;DHT22;1879;45.876;12.300;2022-09-20T07:08:29;16.40;81.30
3727;DHT22;1879;45.876;12.300;2022-09-20T07:10:56;16.50;80.50
3727;DHT22;1879;45.876;12.300;2022-09-20T07:13:22;16.60;82.00
3727;DHT22;1879;45.876;12.300;2022-09-20T07:15:49;16.70;83.90
3727;DHT22;1879;45.876;12.300;2022-09-20T07:18:16;16.80;81.00
3727;DHT22;1879;45.876;12.300;2022-09-20T07:20:43;16.80;79.20
3727;DHT22;1879;45.876;12.300;2022-09-20T07:23:12;16.90;76.90
3727;DHT22;1879;45.876;12.300;2022-09-20T07:25:40;17.00;75.20
3727;DHT22;1879;45.876;12.300;2022-09-20T07:28:07;17.10;75.60
3727;DHT22;1879;45.876;12.300;2022-09-20T07:30:34;17.20;75.30
3727;DHT22;1879;45.876;12.300;2022-09-20T07:33:01;17.20;73.90
3727;DHT22;1879;45.876;12.300;2022-09-20T07:35:28;17.20;75.20
3727;DHT22;1879;45.876;12.300;2022-09-20T07:37:56;17.20;77.80
3727;DHT22;1879;45.876;12.300;2022-09-20T07:40:24;17.30;76.70
3727;DHT22;1879;45.876;12.300;2022-09-20T07:42:51;17.30;79.40
3727;DHT22;1879;45.876;12.300;2022-09-20T07:45:18;17.30;77.40
3727;DHT22;1879;45.876;12.300;2022-09-20T07:47:45;17.30;75.40
3727;DHT22;1879;45.876;12.300;2022-09-20T07:50:12;17.40;74.40
3727;DHT22;1879;45.876;12.300;2022-09-20T07:52:39;17.50;74.70
3727;DHT22;1879;45.876;12.300;2022-09-20T07:55:07;17.60;77.90
3727;DHT22;1879;45.876;12.300;2022-09-20T07:57:37;17.60;78.30
3727;DHT22;1879;45.876;12.300;2022-09-20T08:00:06;17.70;74.10
3727;DHT22;1879;45.876;12.300;2022-09-20T08:02:34;17.80;74.00
3727;DHT22;1879;45.876;12.300;2022-09-20T08:05:00;17.90;72.20
3727;DHT22;1879;45.876;12.300;2022-09-20T08:07:29;17.80;74.30
3727;DHT22;1879;45.876;12.300;2022-09-20T08:09:56;17.90;72.30
3727;DHT22;1879;45.876;12.300;2022-09-20T08:12:24;17.90;71.80
3727;DHT22;1879;45.876;12.300;2022-09-20T08:14:52;18.00;70.70
3727;DHT22;1879;45.876;12.300;2022-09-20T08:17:19;18.00;68.70
3727;DHT22;1879;45.876;12.300;2022-09-20T08:19:46;18.00;68.20
3727;DHT22;1879;45.876;12.300;2022-09-20T08:22:14;18.10;70.90
3727;DHT22;1879;45.876;12.300;2022-09-20T08:24:41;18.30;76.30
3727;DHT22;1879;45.876;12.300;2022-09-20T08:27:08;18.60;77.20
3727;DHT22;1879;45.876;12.300;2022-09-20T08:29:35;18.80;74.60
3727;DHT22;1879;45.876;12.300;2022-09-20T08:32:04;19.10;71.50
3727;DHT22;1879;45.876;12.300;2022-09-20T08:34:31;19.10;67.90
3727;DHT22;1879;45.876;12.300;2022-09-20T08:36:58;19.10;68.40
3727;DHT22;1879;45.876;12.300;2022-09-20T08:39:25;19.10;71.70
3727;DHT22;1879;45.876;12.300;2022-09-20T08:41:54;19.20;71.90
3727;DHT22;1879;45.876;12.300;2022-09-20T08:44:26;19.40;73.80
3727;DHT22;1879;45.876;12.300;2022-09-20T08:47:02;19.40;68.60
3727;DHT22;1879;45.876;12.300;2022-09-20T08:49:32;19.40;67.00
3727;DHT22;1879;45.876;12.300;2022-09-20T08:52:00;19.30;67.20
3727;DHT22;1879;45.876;12.300;2022-09-20T08:54:30;19.30;67.40
3727;DHT22;1879;45.876;12.300;2022-09-20T08:57:01;19.20;65.60
3727;DHT22;1879;45.876;12.300;2022-09-20T08:59:32;19.10;66.80
3727;DHT22;1879;45.876;12.300;2022-09-20T09:01:59;19.20;67.30
3727;DHT22;1879;45.876;12.300;2022-09-20T09:04:34;19.10;65.50
3727;DHT22;1879;45.876;12.300;2022-09-20T09:07:02;19.10;64.70
3727;DHT22;1879;45.876;12.300;2022-09-20T09:09:37;19.20;65.30
3727;DHT22;1879;45.876;12.300;2022-09-20T09:12:12;19.20;65.50
3727;DHT22;1879;45.876;12.300;2022-09-20T09:14:40;19.20;66.40
3727;DHT22;1879;45.876;12.300;2022-09-20T09:17:15;19.30;66.90
3727;DHT22;1879;45.876;12.300;2022-09-20T09:19:45;19.30;65.30
3727;DHT22;1879;45.876;12.300;2022-09-20T09:22:18;19.30;66.00
3727;DHT22;1879;45.876;12.300;2022-09-20T09:27:28;19.40;65.60
3727;DHT22;1879;45.876;12.300;2022-09-20T09:29:55;19.50;66.70
3727;DHT22;1879;45.876;12.300;2022-09-20T09:32:24;19.60;67.20
3727;DHT22;1879;45.876;12.300;2022-09-20T09:34:55;19.70;66.90
3727;DHT22;1879;45.876;12.300;2022-09-20T09:37:28;19.70;66.10
3727;DHT22;1879;45.876;12.300;2022-09-20T09:40:10;19.80;67.80
3727;DHT22;1879;45.876;12.300;2022-09-20T09:42:48;19.80;68.70
3727;DHT22;1879;45.876;12.300;2022-09-20T09:45:30;19.90;68.20
3727;DHT22;1879;45.876;12.300;2022-09-20T09:47:58;20.00;69.20
3727;DHT22;1879;45.876;12.300;2022-09-20T09:50:29;20.20;70.00
3727;DHT22;1879;45.876;12.300;2022-09-20T09:53:01;20.30;70.50
3727;DHT22;1879;45.876;12.300;2022-09-20T09:58:33;20.40;71.80
3727;DHT22;1879;45.876;12.300;2022-09-20T10:01:06;20.40;71.10
3727;DHT22;1879;45.876;12.300;2022-09-20T10:03:48;20.40;71.80
3727;DHT22;1879;45.876;12.300;2022-09-20T10:06:23;20.60;72.40
3727;DHT22;1879;45.876;12.300;2022-09-20T10:09:12;20.70;73.00
3727;DHT22;1879;45.876;12.300;2022-09-20T10:11:57;20.80;72.00
3727;DHT22;1879;45.876;12.300;2022-09-20T10:14:38;20.80;71.70
3727;DHT22;1879;45.876;12.300;2022-09-20T10:20:28;20.90;70.70
3727;DHT22;1879;45.876;12.300;2022-09-20T10:23:12;21.10;72.20
3727;DHT22;1879;45.876;12.300;2022-09-20T10:25:46;21.20;70.90
3727;DHT22;1879;45.876;12.300;2022-09-20T10:28:31;21.40;71.00
3727;DHT22;1879;45.876;12.300;2022-09-20T10:31:05;21.50;70.80
3727;DHT22;1879;45.876;12.300;2022-09-20T10:33:42;21.70;71.40
3727;DHT22;1879;45.876;12.300;2022-09-20T10:36:17;21.70;72.30
3727;DHT22;1879;45.876;12.300;2022-09-20T10:38:53;21.70;71.80
3727;DHT22;1879;45.876;12.300;2022-09-20T10:41:39;21.70;69.20
3727;DHT22;1879;45.876;12.300;2022-09-20T10:44:45;21.70;70.00
3727;DHT22;1879;45.876;12.300;2022-09-20T10:47:15;21.60;68.90
3727;DHT22;1879;45.876;12.300;2022-09-20T10:49:50;21.70;69.90
3727;DHT22;1879;45.876;12.300;2022-09-20T10:52:35;21.80;68.20
3727;DHT22;1879;45.876;12.300;2022-09-20T10:55:21;21.80;68.80
3727;DHT22;1879;45.876;12.300;2022-09-20T10:58:06;21.90;69.70
3727;DHT22;1879;45.876;12.300;2022-09-20T11:00:42;22.10;68.60
3727;DHT22;1879;45.876;12.300;2022-09-20T11:03:22;22.20;68.70
3727;DHT22;1879;45.876;12.300;2022-09-20T11:06:00;22.30;67.10
3727;DHT22;1879;45.876;12.300;2022-09-20T11:08:34;22.40;66.70
3727;DHT22;1879;45.876;12.300;2022-09-20T11:11:07;22.70;68.00
3727;DHT22;1879;45.876;12.300;2022-09-20T11:13:41;23.00;68.20
3727;DHT22;1879;45.876;12.300;2022-09-20T11:16:13;23.50;68.30
3727;DHT22;1879;45.876;12.300;2022-09-20T11:18:45;24.10;67.80
3727;DHT22;1879;45.876;12.300;2022-09-20T11:21:17;24.80;67.50
3727;DHT22;1879;45.876;12.300;2022-09-20T11:23:51;24.90;59.80
3727;DHT22;1879;45.876;12.300;2022-09-20T11:26:27;25.10;57.70
3727;DHT22;1879;45.876;12.300;2022-09-20T11:29:00;26.30;58.80
3727;DHT22;1879;45.876;12.300;2022-09-20T11:31:31;26.60;54.90
3727;DHT22;1879;45.876;12.300;2022-09-20T11:34:07;27.80;56.60
3727;DHT22;1879;45.876;12.300;2022-09-20T11:36:38;29.00;51.70
3727;DHT22;1879;45.876;12.300;2022-09-20T11:39:14;30.00;51.70
3727;DHT22;1879;45.876;12.300;2022-09-20T11:41:48;30.30;48.00
3727;DHT22;1879;45.876;12.300;2022-09-20T11:44:18;31.30;49.30
3727;DHT22;1879;45.876;12.300;2022-09-20T11:46:50;31.40;46.00
3727;DHT22;1879;45.876;12.300;2022-09-20T11:49:22;31.60;45.10
3727;DHT22;1879;45.876;12.300;2022-09-20T11:52:15;32.30;44.20
3727;DHT22;1879;45.876;12.300;2022-09-20T12:41:44;28.50;37.60
3727;DHT22;1879;45.876;12.300;2022-09-20T12:44:34;28.10;38.90
3727;DHT22;1879;45.876;12.300;2022-09-20T12:47:17;28.90;40.60
3727;DHT22;1879;45.876;12.300;2022-09-20T12:49:52;31.60;39.80
3727;DHT22;1879;45.876;12.300;2022-09-20T12:52:51;33.60;38.30
3727;DHT22;1879;45.876;12.300;2022-09-20T12:55:40;35.10;36.80
3727;DHT22;1879;45.876;12.300;2022-09-20T12:58:25;33.90;34.10
3727;DHT22;1879;45.876;12.300;2022-09-20T13:01:29;34.10;34.40
3727;DHT22;1879;45.876;12.300;2022-09-20T13:07:35;36.20;33.70
3727;DHT22;1879;45.876;12.300;2022-09-20T13:10:18;35.90;32.30
3727;DHT22;1879;45.876;12.300;2022-09-20T13:12:46;35.60;32.70
3727;DHT22;1879;45.876;12.300;2022-09-20T13:15:17;35.40;32.80
3727;DHT22;1879;45.876;12.300;2022-09-20T13:17:49;35.70;32.10
3727;DHT22;1879;45.876;12.300;2022-09-20T13:20:22;36.30;32.80
3727;DHT22;1879;45.876;12.300;2022-09-20T13:22:53;36.80;31.40
3727;DHT22;1879;45.876;12.300;2022-09-20T13:25:21;36.80;31.10
3727;DHT22;1879;45.876;12.300;2022-09-20T13:27:55;37.50;30.90
3727;DHT22;1879;45.876;12.300;2022-09-20T13:30:25;38.50;30.10
3727;DHT22;1879;45.876;12.300;2022-09-20T13:32:53;39.20;30.70
3727;DHT22;1879;45.876;12.300;2022-09-20T14:25:30;32.10;31.30
3727;DHT22;1879;45.876;12.300;2022-09-20T14:28:16;30.60;32.50
3727;DHT22;1879;45.876;12.300;2022-09-20T14:30:45;30.40;34.10
3727;DHT22;1879;45.876;12.300;2022-09-20T14:33:18;30.20;34.10
3727;DHT22;1879;45.876;12.300;2022-09-20T14:35:50;30.40;34.10
3727;DHT22;1879;45.876;12.300;2022-09-20T14:38:23;30.70;33.90
3727;DHT22;1879;45.876;12.300;2022-09-20T14:40:50;30.90;33.50
3727;DHT22;1879;45.876;12.300;2022-09-20T14:43:29;30.80;33.00
3727;DHT22;1879;45.876;12.300;2022-09-20T14:45:58;30.20;33.80
3727;DHT22;1879;45.876;12.300;2022-09-20T14:48:34;29.20;35.20
3727;DHT22;1879;45.876;12.300;2022-09-20T14:51:11;28.30;35.80
3727;DHT22;1879;45.876;12.300;2022-09-20T14:53:48;27.60;39.20
3727;DHT22;1879;45.876;12.300;2022-09-20T14:56:32;27.00;41.30
3727;DHT22;1879;45.876;12.300;2022-09-20T14:59:06;26.70;41.90
3727;DHT22;1879;45.876;12.300;2022-09-20T15:01:53;26.30;42.60
3727;DHT22;1879;45.876;12.300;2022-09-20T15:04:22;26.10;42.90
3727;DHT22;1879;45.876;12.300;2022-09-20T15:06:52;25.80;43.70
3727;DHT22;1879;45.876;12.300;2022-09-20T15:09:20;25.80;43.80
3727;DHT22;1879;45.876;12.300;2022-09-20T15:11:59;25.70;44.90
3727;DHT22;1879;45.876;12.300;2022-09-20T15:14:27;25.40;43.40
3727;DHT22;1879;45.876;12.300;2022-09-20T15:16:54;25.70;43.50
3727;DHT22;1879;45.876;12.300;2022-09-20T15:19:23;25.70;42.60
3727;DHT22;1879;45.876;12.300;2022-09-20T15:21:50;25.70;42.90
3727;DHT22;1879;45.876;12.300;2022-09-20T15:24:17;26.10;43.20
3727;DHT22;1879;45.876;12.300;2022-09-20T15:26:44;26.50;42.70
3727;DHT22;1879;45.876;12.300;2022-09-20T15:29:14;27.00;43.40
3727;DHT22;1879;45.876;12.300;2022-09-20T15:31:45;27.70;43.00
3727;DHT22;1879;45.876;12.300;2022-09-20T15:34:12;28.40;43.20
3727;DHT22;1879;45.876;12.300;2022-09-20T15:36:40;28.80;43.00
3727;DHT22;1879;45.876;12.300;2022-09-20T15:39:39;29.10;43.10
3727;DHT22;1879;45.876;12.300;2022-09-20T15:42:06;29.20;42.60
3727;DHT22;1879;45.876;12.300;2022-09-20T15:44:34;28.90;42.80
3727;DHT22;1879;45.876;12.300;2022-09-20T15:47:03;28.40;43.10
3727;DHT22;1879;45.876;12.300;2022-09-20T15:49:31;27.80;43.80
3727;DHT22;1879;45.876;12.300;2022-09-20T15:51:58;27.70;45.10
3727;DHT22;1879;45.876;12.300;2022-09-20T15:54:25;27.40;45.50
3727;DHT22;1879;45.876;12.300;2022-09-20T15:56:52;27.20;45.90
3727;DHT22;1879;45.876;12.300;2022-09-20T15:59:20;27.10;45.80
3727;DHT22;1879;45.876;12.300;2022-09-20T16:01:48;27.00;46.10
3727;DHT22;1879;45.876;12.300;2022-09-20T16:04:21;27.10;46.20
3727;DHT22;1879;45.876;12.300;2022-09-20T16:06:52;27.50;46.10
3727;DHT22;1879;45.876;12.300;2022-09-20T16:09:20;28.00;46.00
3727;DHT22;1879;45.876;12.300;2022-09-20T16:11:47;28.30;45.60
3727;DHT22;1879;45.876;12.300;2022-09-20T16:14:24;28.00;45.30
3727;DHT22;1879;45.876;12.300;2022-09-20T16:16:55;27.60;45.40
3727;DHT22;1879;45.876;12.300;2022-09-20T16:19:23;26.90;45.80
3727;DHT22;1879;45.876;12.300;2022-09-20T16:21:58;26.60;46.70
3727;DHT22;1879;45.876;12.300;2022-09-20T16:24:29;26.10;47.40
3727;DHT22;1879;45.876;12.300;2022-09-20T16:26:57;25.80;48.10
3727;DHT22;1879;45.876;12.300;2022-09-20T16:29:25;25.30;48.10
3727;DHT22;1879;45.876;12.300;2022-09-20T16:31:54;24.90;48.80
3727;DHT22;1879;45.876;12.300;2022-09-20T16:34:24;24.60;49.20
3727;DHT22;1879;45.876;12.300;2022-09-20T16:36:56;24.20;49.70
3727;DHT22;1879;45.876;12.300;2022-09-20T16:39:25;23.90;50.00
3727;DHT22;1879;45.876;12.300;2022-09-20T16:41:54;23.80;50.70
3727;DHT22;1879;45.876;12.300;2022-09-20T16:44:25;23.60;51.20
3727;DHT22;1879;45.876;12.300;2022-09-20T16:46:52;23.40;52.00
3727;DHT22;1879;45.876;12.300;2022-09-20T16:49:19;23.30;52.20
3727;DHT22;1879;45.876;12.300;2022-09-20T16:51:47;23.20;52.80
3727;DHT22;1879;45.876;12.300;2022-09-20T16:54:15;23.20;53.10
3727;DHT22;1879;45.876;12.300;2022-09-20T16:56:44;23.00;53.50
3727;DHT22;1879;45.876;12.300;2022-09-20T16:59:13;22.90;53.90
3727;DHT22;1879;45.876;12.300;2022-09-20T17:01:41;22.90;54.60
3727;DHT22;1879;45.876;12.300;2022-09-20T17:04:08;22.80;54.90
3727;DHT22;1879;45.876;12.300;2022-09-20T17:06:37;22.70;55.30
3727;DHT22;1879;45.876;12.300;2022-09-20T17:09:06;22.70;56.10
3727;DHT22;1879;45.876;12.300;2022-09-20T17:11:35;22.60;56.70
3727;DHT22;1879;45.876;12.300;2022-09-20T17:14:04;22.50;57.70
3727;DHT22;1879;45.876;12.300;2022-09-20T17:16:33;22.50;58.00
3727;DHT22;1879;45.876;12.300;2022-09-20T17:19:02;22.40;58.40
3727;DHT22;1879;45.876;12.300;2022-09-20T17:21:32;22.30;59.10
3727;DHT22;1879;45.876;12.300;2022-09-20T17:24:01;22.30;59.80
3727;DHT22;1879;45.876;12.300;2022-09-20T17:26:31;22.20;60.80
3727;DHT22;1879;45.876;12.300;2022-09-20T17:29:00;22.10;61.60
3727;DHT22;1879;45.876;12.300;2022-09-20T17:31:29;22.10;64.50
3727;DHT22;1879;45.876;12.300;2022-09-20T17:33:58;21.90;65.70
3727;DHT22;1879;45.876;12.300;2022-09-20T17:36:28;21.80;68.70
3727;DHT22;1879;45.876;12.300;2022-09-20T17:38:56;21.70;70.80
3727;DHT22;1879;45.876;12.300;2022-09-20T17:41:24;21.60;73.90
3727;DHT22;1879;45.876;12.300;2022-09-20T17:43:54;21.50;81.40
3727;DHT22;1879;45.876;12.300;2022-09-20T17:46:22;21.30;90.00
3727;DHT22;1879;45.876;12.300;2022-09-20T17:48:51;21.10;92.00
3727;DHT22;1879;45.876;12.300;2022-09-20T17:51:21;20.90;93.80
3727;DHT22;1879;45.876;12.300;2022-09-20T17:53:49;20.70;96.20
3727;DHT22;1879;45.876;12.300;2022-09-20T17:56:17;20.60;98.10
3727;DHT22;1879;45.876;12.300;2022-09-20T17:58:45;20.50;98.90
3727;DHT22;1879;45.876;12.300;2022-09-20T18:01:16;20.50;97.90
3727;DHT22;1879;45.876;12.300;2022-09-20T18:03:46;20.30;99.90
3727;DHT22;1879;45.876;12.300;2022-09-20T18:06:15;20.30;99.90
3727;DHT22;1879;45.876;12.300;2022-09-20T18:08:45;20.20;99.90
3727;DHT22;1879;45.876;12.300;2022-09-20T18:11:12;20.10;99.90
3727;DHT22;1879;45.876;12.300;2022-09-20T18:13:40;20.00;99.90
3727;DHT22;1879;45.876;12.300;2022-09-20T18:16:08;20.00;99.90
3727;DHT22;1879;45.876;12.300;2022-09-20T18:18:37;20.00;99.90
3727;DHT22;1879;45.876;12.300;2022-09-20T18:21:12;19.90;99.90
3727;DHT22;1879;45.876;12.300;2022-09-20T18:23:40;19.90;99.90
3727;DHT22;1879;45.876;12.300;2022-09-20T18:26:09;19.80;99.90
3727;DHT22;1879;45.876;12.300;2022-09-20T18:28:56;19.70;99.90
3727;DHT22;1879;45.876;12.300;2022-09-20T18:31:25;19.60;99.90
3727;DHT22;1879;45.876;12.300;2022-09-20T18:33:56;19.50;99.90
3727;DHT22;1879;45.876;12.300;2022-09-20T18:36:24;19.30;99.90
3727;DHT22;1879;45.876;12.300;2022-09-20T18:38:52;19.20;99.90
3727;DHT22;1879;45.876;12.300;2022-09-20T18:41:21;19.10;99.90
3727;DHT22;1879;45.876;12.300;2022-09-20T18:43:50;19.10;99.90
3727;DHT22;1879;45.876;12.300;2022-09-20T18:46:18;18.90;99.90
3727;DHT22;1879;45.876;12.300;2022-09-20T18:48:48;18.90;99.90
3727;DHT22;1879;45.876;12.300;2022-09-20T18:51:17;18.90;99.90
3727;DHT22;1879;45.876;12.300;2022-09-20T18:53:44;18.80;99.90
3727;DHT22;1879;45.876;12.300;2022-09-20T18:56:22;18.80;99.90